Time;durP1;ratioP1;P1;durP2;ratioP2;P2;SDS_P1;SDS_P2;PMS_P1;PMS_P2;Temp;Humidity;BMP_temperature;BMP_pressure;BME280_temperature;BME280_humidity;BME280_pressure;Samples;Min_cycle;Max_cycle;Signal;HPM_P1;HPM_P2
2023/05/07 00:00:00;;;;;;;4.28;2.60;;;;;;;;;;5072716;28;20127;-70
2023/05/07 00:02:46;;;;;;;7.00;3.17;;;;;;;;;;5072659;28;20062;-70
2023/05/07 00:05:31;;;;;;;3.75;2.55;;;;;;;;;;5074121;28;20040;-69
2023/05/07 00:08:22;;;;;;;8.75;3.28;;;;;;;;;;5071655;28;20560;-70
2023/05/07 00:11:07;;;;;;;5.32;2.92;;;;;;;;;;5074823;28;20032;-69
2023/05/07 00:13:53;;;;;;;4.80;2.75;;;;;;;;;;5073772;28;20039;-68
2023/05/07 00:16:38;;;;;;;5.05;2.85;;;;;;;;;;5073631;28;20487;-61
2023/05/07 00:19:24;;;;;;;5.55;2.75;;;;;;;;;;5074049;28;20032;-60
2023/05/07 00:22:10;;;;;;;6.75;3.42;;;;;;;;;;5073648;28;20600;-61
2023/05/07 00:24:55;;;;;;;6.05;2.85;;;;;;;;;;5074074;28;20082;-61
2023/05/07 00:27:40;;;;;;;6.03;3.33;;;;;;;;;;5072547;28;20035;-65
2023/05/07 00:30:26;;;;;;;6.97;3.10;;;;;;;;;;5073820;28;20043;-70
2023/05/07 00:33:11;;;;;;;9.35;3.05;;;;;;;;;;5063167;28;20513;-64
2023/05/07 00:35:56;;;;;;;5.38;2.88;;;;;;;;;;5066900;28;20482;-62
2023/05/07 00:38:41;;;;;;;6.47;3.20;;;;;;;;;;5072094;28;20045;-63
2023/05/07 00:41:26;;;;;;;5.15;2.75;;;;;;;;;;5076771;28;20039;-62
2023/05/07 00:44:13;;;;;;;3.53;2.80;;;;;;;;;;5086564;28;20077;-62
2023/05/07 00:47:00;;;;;;;6.07;2.83;;;;;;;;;;5067064;28;20035;-63
2023/05/07 00:49:45;;;;;;;4.53;2.65;;;;;;;;;;5066287;28;20039;-76
2023/05/07 00:52:31;;;;;;;4.63;3.13;;;;;;;;;;5076226;28;20081;-71
2023/05/07 00:55:16;;;;;;;6.05;3.03;;;;;;;;;;5074717;28;20032;-71
2023/05/07 00:58:02;;;;;;;4.65;2.63;;;;;;;;;;5075421;28;20040;-71
2023/05/07 01:00:47;;;;;;;4.97;2.97;;;;;;;;;;5076953;28;20040;-71
2023/05/07 01:03:32;;;;;;;5.50;2.88;;;;;;;;;;5076076;28;20031;-72
2023/05/07 01:06:17;;;;;;;5.60;3.40;;;;;;;;;;5075433;28;20501;-71
2023/05/07 01:09:04;;;;;;;6.93;3.17;;;;;;;;;;5077507;28;20351;-68
2023/05/07 01:11:50;;;;;;;5.32;2.90;;;;;;;;;;5077222;28;20088;-64
2023/05/07 01:14:35;;;;;;;8.23;3.30;;;;;;;;;;5080520;28;20055;-63
2023/05/07 01:17:20;;;;;;;3.45;2.60;;;;;;;;;;5079820;28;20032;-64
2023/05/07 01:20:10;;;;;;;4.95;2.95;;;;;;;;;;5077330;28;20042;-63
2023/05/07 01:22:56;;;;;;;3.47;2.38;;;;;;;;;;5077140;28;20475;-64
2023/05/07 01:25:41;;;;;;;5.55;3.03;;;;;;;;;;5077305;28;20036;-64
2023/05/07 01:28:26;;;;;;;6.30;3.15;;;;;;;;;;5077648;28;20067;-75
2023/05/07 01:31:12;;;;;;;3.28;2.50;;;;;;;;;;5076701;28;20043;-75
2023/05/07 01:33:59;;;;;;;9.57;2.90;;;;;;;;;;5060519;28;20629;-72
2023/05/07 01:36:44;;;;;;;6.63;3.20;;;;;;;;;;5074479;28;20059;-76
2023/05/07 01:39:30;;;;;;;4.90;2.90;;;;;;;;;;5072946;28;20624;-75
2023/05/07 01:42:15;;;;;;;6.15;2.60;;;;;;;;;;5073515;28;20040;-75
2023/05/07 01:45:00;;;;;;;3.90;2.58;;;;;;;;;;5076190;28;20039;-70
2023/05/07 01:47:45;;;;;;;6.60;2.60;;;;;;;;;;5081943;28;20032;-63
2023/05/07 01:50:31;;;;;;;4.75;2.65;;;;;;;;;;5073155;28;20429;-63
2023/05/07 01:53:16;;;;;;;5.85;2.90;;;;;;;;;;5063204;28;20036;-64
2023/05/07 01:56:02;;;;;;;4.55;2.92;;;;;;;;;;5076543;28;20036;-63
2023/05/07 01:58:47;;;;;;;5.47;2.90;;;;;;;;;;5075625;28;20028;-63
2023/05/07 02:01:32;;;;;;;4.25;2.40;;;;;;;;;;5076168;28;20571;-62
2023/05/07 02:04:17;;;;;;;4.90;2.83;;;;;;;;;;5069373;28;20047;-68
2023/05/07 02:07:03;;;;;;;3.65;2.65;;;;;;;;;;5072725;28;20028;-68
2023/05/07 02:09:48;;;;;;;4.10;2.67;;;;;;;;;;5076525;28;20035;-69
2023/05/07 02:12:33;;;;;;;5.28;2.80;;;;;;;;;;5068222;28;20047;-69
2023/05/07 02:15:18;;;;;;;9.07;3.13;;;;;;;;;;5076362;28;20032;-70
2023/05/07 02:18:08;;;;;;;5.28;3.00;;;;;;;;;;5074809;28;20648;-69
2023/05/07 02:20:54;;;;;;;6.13;3.10;;;;;;;;;;5082680;28;20036;-68
2023/05/07 02:23:39;;;;;;;6.10;2.85;;;;;;;;;;5076093;28;20108;-61
2023/05/07 02:26:25;;;;;;;5.13;3.22;;;;;;;;;;5075123;28;20039;-61
2023/05/07 02:29:10;;;;;;;5.53;2.63;;;;;;;;;;5064168;28;20048;-62
2023/05/07 02:31:56;;;;;;;5.28;2.63;;;;;;;;;;5076076;28;20036;-62
2023/05/07 02:34:41;;;;;;;3.20;2.60;;;;;;;;;;5044508;28;20032;-62
2023/05/07 02:37:26;;;;;;;6.22;2.70;;;;;;;;;;5072626;28;20059;-63
2023/05/07 02:40:11;;;;;;;5.22;3.05;;;;;;;;;;5076093;28;20042;-62
2023/05/07 02:42:57;;;;;;;4.93;2.78;;;;;;;;;;5054202;28;20057;-70
2023/05/07 02:45:43;;;;;;;6.35;3.25;;;;;;;;;;5069197;28;20036;-71
2023/05/07 02:48:28;;;;;;;6.53;3.10;;;;;;;;;;5075204;28;20038;-70
2023/05/07 02:51:13;;;;;;;4.45;2.72;;;;;;;;;;5078462;28;20036;-69
2023/05/07 02:54:00;;;;;;;3.85;2.60;;;;;;;;;;5062275;28;20028;-70
2023/05/07 02:57:12;;;;;;;6.40;2.60;;;;;;;;;;5059513;28;20394;-70
2023/05/07 02:59:58;;;;;;;6.35;2.90;;;;;;;;;;5067767;28;20028;-61
2023/05/07 03:02:43;;;;;;;4.78;2.83;;;;;;;;;;5061034;28;20071;-67
2023/05/07 03:05:29;;;;;;;4.80;2.72;;;;;;;;;;5063053;28;20109;-70
2023/05/07 03:08:14;;;;;;;4.90;2.42;;;;;;;;;;5071771;28;20032;-67
2023/05/07 03:10:59;;;;;;;5.13;3.17;;;;;;;;;;5062940;28;20379;-68
2023/05/07 03:13:49;;;;;;;4.95;3.05;;;;;;;;;;5061527;28;20036;-67
2023/05/07 03:16:34;;;;;;;5.93;2.78;;;;;;;;;;5073618;28;20038;-59
2023/05/07 03:19:19;;;;;;;3.92;2.45;;;;;;;;;;5074809;28;20040;-62
2023/05/07 03:22:04;;;;;;;4.97;2.42;;;;;;;;;;5075287;28;20032;-62
2023/05/07 03:24:50;;;;;;;6.20;2.80;;;;;;;;;;5081310;28;20044;-64
2023/05/07 03:27:35;;;;;;;11.40;3.15;;;;;;;;;;5055357;28;20028;-63
2023/05/07 03:30:20;;;;;;;6.90;3.08;;;;;;;;;;5052801;28;20041;-61
2023/05/07 03:33:05;;;;;;;4.07;2.50;;;;;;;;;;5073941;28;20119;-63
2023/05/07 03:35:51;;;;;;;4.53;2.97;;;;;;;;;;5074706;28;20020;-62
2023/05/07 03:38:36;;;;;;;5.05;2.72;;;;;;;;;;5073799;28;20024;-63
2023/05/07 03:41:21;;;;;;;6.90;3.00;;;;;;;;;;5073772;28;20044;-63
2023/05/07 03:44:06;;;;;;;5.82;2.90;;;;;;;;;;5074335;28;20579;-64
2023/05/07 03:46:52;;;;;;;6.53;2.47;;;;;;;;;;5073588;28;20040;-64
2023/05/07 03:49:37;;;;;;;6.30;3.30;;;;;;;;;;5072740;28;20046;-62
2023/05/07 03:52:25;;;;;;;5.15;2.65;;;;;;;;;;5073416;28;20034;-61
2023/05/07 03:55:10;;;;;;;5.10;2.70;;;;;;;;;;5078892;28;20095;-70
2023/05/07 03:57:56;;;;;;;4.00;2.80;;;;;;;;;;5075437;28;20123;-60
2023/05/07 04:00:41;;;;;;;7.68;2.65;;;;;;;;;;5073938;28;20032;-62
2023/05/07 04:03:27;;;;;;;5.60;2.90;;;;;;;;;;5061760;28;20043;-61
2023/05/07 04:06:12;;;;;;;4.53;2.85;;;;;;;;;;5074047;28;20043;-61
2023/05/07 04:08:57;;;;;;;3.63;2.30;;;;;;;;;;5073951;28;20466;-60
2023/05/07 04:11:42;;;;;;;5.40;2.95;;;;;;;;;;5074103;28;20032;-73
2023/05/07 04:14:28;;;;;;;8.38;2.78;;;;;;;;;;5074094;28;20024;-64
2023/05/07 04:17:13;;;;;;;5.53;2.88;;;;;;;;;;5072927;28;20458;-62
2023/05/07 04:19:58;;;;;;;9.63;2.97;;;;;;;;;;5074253;28;20111;-63
2023/05/07 04:22:43;;;;;;;4.60;3.05;;;;;;;;;;5073943;28;20032;-63
2023/05/07 04:25:29;;;;;;;4.78;2.72;;;;;;;;;;5073354;28;20347;-63
2023/05/07 04:28:14;;;;;;;4.43;2.95;;;;;;;;;;5081198;28;20219;-62
2023/05/07 04:30:59;;;;;;;4.32;2.78;;;;;;;;;;5073893;28;20052;-81
2023/05/07 04:33:45;;;;;;;4.80;2.58;;;;;;;;;;5073968;28;20074;-62
2023/05/07 04:36:30;;;;;;;3.35;2.45;;;;;;;;;;5074083;28;20054;-66
2023/05/07 04:39:15;;;;;;;7.85;4.05;;;;;;;;;;5072389;28;20036;-62
2023/05/07 04:42:01;;;;;;;7.80;3.63;;;;;;;;;;5073782;28;20092;-64
2023/05/07 04:44:46;;;;;;;4.75;2.85;;;;;;;;;;5074007;28;20394;-61
2023/05/07 04:47:31;;;;;;;3.85;2.67;;;;;;;;;;5074237;28;20043;-81
2023/05/07 04:50:18;;;;;;;4.72;3.08;;;;;;;;;;5067019;28;20520;-80
2023/05/07 04:53:04;;;;;;;4.75;2.63;;;;;;;;;;5068630;28;20039;-60
2023/05/07 04:55:54;;;;;;;4.22;2.72;;;;;;;;;;5073824;28;20034;-61
2023/05/07 04:58:39;;;;;;;4.45;2.50;;;;;;;;;;5075837;28;20042;-61
2023/05/07 05:01:25;;;;;;;5.57;2.67;;;;;;;;;;5072829;28;20067;-62
2023/05/07 05:04:10;;;;;;;3.47;2.30;;;;;;;;;;5066890;28;20039;-62
2023/05/07 05:06:55;;;;;;;5.25;2.45;;;;;;;;;;5070189;28;20094;-76
2023/05/07 05:09:40;;;;;;;3.53;2.53;;;;;;;;;;5073347;28;20429;-62
2023/05/07 05:12:26;;;;;;;4.53;2.83;;;;;;;;;;5073795;28;20035;-62
2023/05/07 05:15:12;;;;;;;8.85;3.13;;;;;;;;;;5073836;28;20063;-63
2023/05/07 05:17:57;;;;;;;7.78;2.70;;;;;;;;;;5068983;28;20050;-62
2023/05/07 05:20:42;;;;;;;4.68;3.10;;;;;;;;;;5072622;28;20052;-61
2023/05/07 05:23:27;;;;;;;4.13;2.30;;;;;;;;;;5071853;28;20036;-62
2023/05/07 05:26:12;;;;;;;4.65;2.78;;;;;;;;;;5067528;28;20089;-80
2023/05/07 05:28:58;;;;;;;8.95;3.85;;;;;;;;;;5072721;28;20032;-74
2023/05/07 05:31:43;;;;;;;5.15;2.20;;;;;;;;;;5083511;28;20090;-73
2023/05/07 05:34:28;;;;;;;4.30;2.58;;;;;;;;;;5073298;28;20056;-75
2023/05/07 05:37:13;;;;;;;3.90;2.20;;;;;;;;;;5073874;28;20379;-72
2023/05/07 05:39:59;;;;;;;6.32;2.50;;;;;;;;;;5073786;28;20145;-73
2023/05/07 05:42:44;;;;;;;5.20;2.58;;;;;;;;;;5074985;28;20090;-79
2023/05/07 05:45:29;;;;;;;4.72;3.45;;;;;;;;;;5076632;28;20134;-70
2023/05/07 05:48:14;;;;;;;5.60;2.65;;;;;;;;;;5066602;28;20097;-61
2023/05/07 05:50:59;;;;;;;3.90;2.42;;;;;;;;;;5064034;28;20085;-62
2023/05/07 05:53:45;;;;;;;3.90;2.03;;;;;;;;;;5076160;28;20040;-61
2023/05/07 05:56:30;;;;;;;4.22;2.53;;;;;;;;;;5076907;28;20044;-62
2023/05/07 05:59:15;;;;;;;4.22;2.83;;;;;;;;;;5056537;28;20513;-62
2023/05/07 06:02:01;;;;;;;6.65;1.95;;;;;;;;;;5052647;28;20032;-72
2023/05/07 06:04:46;;;;;;;7.22;2.33;;;;;;;;;;5077153;28;20100;-72
2023/05/07 06:07:31;;;;;;;3.83;2.13;;;;;;;;;;5074413;28;20512;-73
2023/05/07 06:10:16;;;;;;;3.30;2.10;;;;;;;;;;5054485;28;20136;-74
2023/05/07 06:13:01;;;;;;;3.53;2.45;;;;;;;;;;5072082;28;20040;-72
2023/05/07 06:15:47;;;;;;;4.63;2.50;;;;;;;;;;5074751;28;20028;-74
2023/05/07 06:18:32;;;;;;;5.28;2.25;;;;;;;;;;5073861;28;20028;-75
2023/05/07 06:21:17;;;;;;;5.55;2.00;;;;;;;;;;5075776;28;20035;-79
2023/05/07 06:24:02;;;;;;;3.35;1.85;;;;;;;;;;5055519;28;20032;-61
2023/05/07 06:26:48;;;;;;;2.80;2.05;;;;;;;;;;5073161;28;20474;-61
2023/05/07 06:29:33;;;;;;;5.32;2.30;;;;;;;;;;5076071;28;20574;-61
2023/05/07 06:32:18;;;;;;;3.15;1.73;;;;;;;;;;5076092;28;20040;-62
2023/05/07 06:35:04;;;;;;;2.75;1.65;;;;;;;;;;5079313;28;20025;-59
2023/05/07 06:37:49;;;;;;;2.83;1.65;;;;;;;;;;5076903;28;20036;-61
2023/05/07 06:40:34;;;;;;;3.65;1.92;;;;;;;;;;5075551;28;20072;-67
2023/05/07 06:43:20;;;;;;;4.45;1.80;;;;;;;;;;5074994;28;20036;-82
2023/05/07 06:46:05;;;;;;;3.05;1.80;;;;;;;;;;5076608;28;20032;-80
2023/05/07 06:48:50;;;;;;;2.33;1.88;;;;;;;;;;5074985;28;20019;-82
2023/05/07 06:51:35;;;;;;;4.38;2.15;;;;;;;;;;5076796;28;20032;-82
2023/05/07 06:54:20;;;;;;;5.05;1.75;;;;;;;;;;5062799;28;20173;-81
2023/05/07 06:57:06;;;;;;;2.22;1.77;;;;;;;;;;5075587;28;20028;-64
2023/05/07 06:59:51;;;;;;;3.20;2.08;;;;;;;;;;5075691;28;20089;-61
2023/05/07 07:02:36;;;;;;;4.05;2.15;;;;;;;;;;5047719;28;20039;-61
2023/05/07 07:05:21;;;;;;;4.60;2.00;;;;;;;;;;5075261;28;20517;-62
2023/05/07 07:08:07;;;;;;;6.10;2.38;;;;;;;;;;5083001;28;20028;-61
2023/05/07 07:10:52;;;;;;;2.72;2.10;;;;;;;;;;5074665;28;20040;-61
2023/05/07 07:13:37;;;;;;;6.43;2.33;;;;;;;;;;5062203;28;20066;-61
2023/05/07 07:16:22;;;;;;;3.75;2.60;;;;;;;;;;5074995;28;20044;-65
2023/05/07 07:19:08;;;;;;;4.20;2.28;;;;;;;;;;5075342;28;20038;-65
2023/05/07 07:21:53;;;;;;;4.50;2.72;;;;;;;;;;5074305;28;20031;-64
2023/05/07 07:24:38;;;;;;;5.47;2.20;;;;;;;;;;5073728;28;20032;-64
2023/05/07 07:27:23;;;;;;;3.58;2.85;;;;;;;;;;5075008;28;20390;-61
2023/05/07 07:30:08;;;;;;;4.47;2.20;;;;;;;;;;5075004;28;20040;-62
2023/05/07 07:32:54;;;;;;;4.05;2.53;;;;;;;;;;5074080;28;20032;-69
2023/05/07 07:35:40;;;;;;;4.25;2.25;;;;;;;;;;5074708;28;20036;-61
2023/05/07 07:38:25;;;;;;;10.40;2.67;;;;;;;;;;5073979;28;20040;-70
2023/05/07 07:41:10;;;;;;;6.65;2.50;;;;;;;;;;5080816;28;20134;-69
2023/05/07 07:43:56;;;;;;;4.28;2.50;;;;;;;;;;5075043;28;20116;-70
2023/05/07 07:46:41;;;;;;;5.07;2.28;;;;;;;;;;5055041;28;20032;-70
2023/05/07 07:49:26;;;;;;;3.08;2.40;;;;;;;;;;5059134;28;20403;-70
2023/05/07 07:52:11;;;;;;;5.05;2.30;;;;;;;;;;5075022;28;20416;-63
2023/05/07 07:54:57;;;;;;;2.00;1.80;;;;;;;;;;5074697;28;20039;-62
2023/05/07 07:57:42;;;;;;;5.50;2.15;;;;;;;;;;5071295;28;20051;-61
2023/05/07 08:00:27;;;;;;;5.43;2.05;;;;;;;;;;5073870;28;20039;-62
2023/05/07 08:03:12;;;;;;;3.42;1.67;;;;;;;;;;5060289;28;20405;-65
2023/05/07 08:05:57;;;;;;;3.92;2.00;;;;;;;;;;5072992;28;20035;-64
2023/05/07 08:08:43;;;;;;;3.08;2.15;;;;;;;;;;5072165;28;20046;-65
2023/05/07 08:11:28;;;;;;;5.47;2.03;;;;;;;;;;5079212;28;20144;-75
2023/05/07 08:14:15;;;;;;;2.33;1.80;;;;;;;;;;5074571;28;20036;-61
2023/05/07 08:17:00;;;;;;;2.53;1.60;;;;;;;;;;5069442;28;20074;-62
2023/05/07 08:19:46;;;;;;;3.40;1.95;;;;;;;;;;5074136;28;20050;-62
2023/05/07 08:22:31;;;;;;;4.78;1.98;;;;;;;;;;5072831;28;20042;-63
2023/05/07 08:25:22;;;;;;;5.53;1.90;;;;;;;;;;5070278;28;20699;-65
2023/05/07 08:28:08;;;;;;;7.70;2.03;;;;;;;;;;5067779;28;20042;-66
2023/05/07 08:30:53;;;;;;;4.15;2.00;;;;;;;;;;5068834;28;20082;-71
2023/05/07 08:33:38;;;;;;;2.10;1.90;;;;;;;;;;5070013;28;20028;-66
2023/05/07 08:36:24;;;;;;;3.17;1.90;;;;;;;;;;5069235;28;20073;-65
2023/05/07 08:39:09;;;;;;;4.30;2.47;;;;;;;;;;5069104;28;20036;-69
2023/05/07 08:41:55;;;;;;;4.28;2.05;;;;;;;;;;5069961;28;20040;-67
2023/05/07 08:44:41;;;;;;;5.43;2.60;;;;;;;;;;5075341;28;20039;-69
2023/05/07 08:47:29;;;;;;;3.35;2.10;;;;;;;;;;5047716;28;20028;-67
2023/05/07 08:50:15;;;;;;;5.18;2.55;;;;;;;;;;5068406;28;20112;-65
2023/05/07 08:53:00;;;;;;;5.72;2.85;;;;;;;;;;5068853;28;20032;-64
2023/05/07 08:55:45;;;;;;;2.58;2.20;;;;;;;;;;5066007;28;20522;-65
2023/05/07 08:58:31;;;;;;;7.15;3.00;;;;;;;;;;5069177;28;20378;-63
2023/05/07 09:01:16;;;;;;;3.92;2.20;;;;;;;;;;5066963;28;20113;-61
2023/05/07 09:04:01;;;;;;;5.45;2.20;;;;;;;;;;5075283;28;20536;-61
2023/05/07 09:06:47;;;;;;;4.78;2.22;;;;;;;;;;5074521;28;20677;-66
2023/05/07 09:09:33;;;;;;;4.43;2.13;;;;;;;;;;5077327;28;20043;-72
2023/05/07 09:12:19;;;;;;;4.20;2.13;;;;;;;;;;5056801;28;20043;-70
2023/05/07 09:15:04;;;;;;;6.30;2.92;;;;;;;;;;5072607;28;20043;-69
2023/05/07 09:17:50;;;;;;;4.07;2.47;;;;;;;;;;5079368;28;20459;-67
2023/05/07 09:20:38;;;;;;;6.40;2.83;;;;;;;;;;5062361;28;20094;-67
2023/05/07 09:23:24;;;;;;;3.92;2.03;;;;;;;;;;5072737;28;20032;-59
2023/05/07 09:26:11;;;;;;;6.28;2.97;;;;;;;;;;5071984;28;20046;-64
2023/05/07 09:28:56;;;;;;;6.10;2.38;;;;;;;;;;5064234;28;20028;-59
2023/05/07 09:31:42;;;;;;;8.82;3.22;;;;;;;;;;5074908;28;20041;-61
2023/05/07 09:34:28;;;;;;;4.47;2.63;;;;;;;;;;5069372;28;20044;-61
2023/05/07 09:37:17;;;;;;;9.52;3.85;;;;;;;;;;5067402;28;20402;-59
2023/05/07 09:40:03;;;;;;;5.85;2.40;;;;;;;;;;5074903;28;20059;-61
2023/05/07 09:42:49;;;;;;;9.10;3.40;;;;;;;;;;5075440;28;20123;-61
2023/05/07 09:45:34;;;;;;;3.92;2.00;;;;;;;;;;5076773;28;20028;-66
2023/05/07 09:48:20;;;;;;;9.18;2.83;;;;;;;;;;5084517;28;20032;-66
2023/05/07 09:51:28;;;;;;;6.88;2.88;;;;;;;;;;5062710;28;20086;-66
2023/05/07 09:54:13;;;;;;;5.93;2.77;;;;;;;;;;5071682;28;20028;-65
2023/05/07 09:56:59;;;;;;;4.50;1.85;;;;;;;;;;5070368;28;20035;-64
2023/05/07 09:59:45;;;;;;;3.95;2.33;;;;;;;;;;5068945;28;20055;-64
2023/05/07 10:02:31;;;;;;;4.18;2.22;;;;;;;;;;5067088;28;20028;-65
2023/05/07 10:05:17;;;;;;;4.85;2.38;;;;;;;;;;5071289;28;20351;-62
2023/05/07 10:08:03;;;;;;;2.95;2.00;;;;;;;;;;5074461;28;20043;-62
2023/05/07 10:10:48;;;;;;;8.23;2.38;;;;;;;;;;5074767;28;20058;-65
2023/05/07 10:13:37;;;;;;;6.65;2.65;;;;;;;;;;5071768;28;20378;-62
2023/05/07 10:16:23;;;;;;;4.22;2.00;;;;;;;;;;5074323;28;20570;-62
2023/05/07 10:19:11;;;;;;;3.33;2.20;;;;;;;;;;5077844;28;20063;-73
2023/05/07 10:22:01;;;;;;;3.00;2.23;;;;;;;;;;5073574;28;20080;-61
2023/05/07 10:24:47;;;;;;;7.07;2.22;;;;;;;;;;5075212;28;20089;-69
2023/05/07 10:27:32;;;;;;;4.75;2.20;;;;;;;;;;5064857;28;20123;-68
2023/05/07 10:30:36;;;;;;;4.22;2.13;;;;;;;;;;5070995;28;20068;-69
2023/05/07 10:33:23;;;;;;;2.58;1.65;;;;;;;;;;5070799;28;20490;-70
2023/05/07 10:36:09;;;;;;;6.97;2.22;;;;;;;;;;5069696;28;20225;-72
2023/05/07 10:38:54;;;;;;;4.88;2.22;;;;;;;;;;5070511;28;20028;-70
2023/05/07 10:41:40;;;;;;;5.63;1.85;;;;;;;;;;5068676;28;20020;-60
2023/05/07 10:44:29;;;;;;;3.97;2.40;;;;;;;;;;5067756;28;20051;-63
2023/05/07 10:47:15;;;;;;;4.90;1.83;;;;;;;;;;5066612;28;20032;-62
2023/05/07 10:50:03;;;;;;;5.28;2.08;;;;;;;;;;5070454;28;20032;-60
2023/05/07 10:53:08;;;;;;;3.00;2.30;;;;;;;;;;5078325;28;20032;-62
2023/05/07 10:56:12;;;;;;;3.50;2.28;;;;;;;;;;5058569;28;20043;-66
2023/05/07 10:59:17;;;;;;;4.03;2.05;;;;;;;;;;5069702;28;20024;-77
2023/05/07 11:02:03;;;;;;;4.47;2.50;;;;;;;;;;5065715;28;20050;-72
2023/05/07 11:05:07;;;;;;;2.85;2.20;;;;;;;;;;5068324;28;20089;-72
2023/05/07 11:07:58;;;;;;;3.97;1.80;;;;;;;;;;5069929;28;20028;-75
2023/05/07 11:10:50;;;;;;;2.53;1.92;;;;;;;;;;5052379;28;20044;-73
2023/05/07 11:13:45;;;;;;;3.30;2.30;;;;;;;;;;5071054;28;20028;-65
2023/05/07 11:16:32;;;;;;;5.13;2.30;;;;;;;;;;5067239;28;20089;-65
2023/05/07 11:19:37;;;;;;;2.22;1.63;;;;;;;;;;4955406;22;20044;-66
2023/05/07 11:22:39;;;;;;;3.60;2.00;;;;;;;;;;4919672;29;20047;-65
2023/05/07 11:25:25;;;;;;;4.25;2.10;;;;;;;;;;4928516;28;20475;-63
2023/05/07 11:28:10;;;;;;;3.28;1.88;;;;;;;;;;4924619;29;20433;-67
2023/05/07 11:30:56;;;;;;;3.17;2.05;;;;;;;;;;4913501;29;20461;-66
2023/05/07 11:33:43;;;;;;;4.68;2.22;;;;;;;;;;4925914;28;20040;-69
2023/05/07 11:36:30;;;;;;;2.25;1.85;;;;;;;;;;4925244;28;20031;-67
2023/05/07 11:39:30;;;;;;;5.72;1.80;;;;;;;;;;4922847;29;20042;-68
2023/05/07 11:42:27;;;;;;;4.00;1.92;;;;;;;;;;4927700;28;20032;-68
2023/05/07 11:45:22;;;;;;;2.35;1.95;;;;;;;;;;4924065;29;20206;-70
2023/05/07 11:48:07;;;;;;;3.78;1.80;;;;;;;;;;4934222;28;20031;-69
2023/05/07 11:50:54;;;;;;;3.45;1.83;;;;;;;;;;4935390;28;20043;-76
2023/05/07 11:53:40;;;;;;;3.90;1.73;;;;;;;;;;4921905;29;20463;-73
2023/05/07 11:56:25;;;;;;;3.25;1.90;;;;;;;;;;4930450;29;20039;-70
2023/05/07 11:59:10;;;;;;;4.90;2.47;;;;;;;;;;4924231;28;20082;-68
2023/05/07 12:01:57;;;;;;;6.38;2.60;;;;;;;;;;4931397;28;20212;-69
2023/05/07 12:04:42;;;;;;;3.35;2.15;;;;;;;;;;4922324;29;20063;-71
2023/05/07 12:07:28;;;;;;;7.68;1.95;;;;;;;;;;4917562;29;20031;-70
2023/05/07 12:10:13;;;;;;;3.90;1.90;;;;;;;;;;4925385;29;20063;-70
2023/05/07 12:12:58;;;;;;;6.05;2.38;;;;;;;;;;4940866;28;20066;-71
2023/05/07 12:15:44;;;;;;;3.97;2.22;;;;;;;;;;4941355;28;20482;-71
2023/05/07 12:18:30;;;;;;;4.30;1.98;;;;;;;;;;4920882;29;20024;-72
2023/05/07 12:21:17;;;;;;;5.00;1.92;;;;;;;;;;4921259;29;20590;-74
2023/05/07 12:24:02;;;;;;;4.50;1.67;;;;;;;;;;4920338;29;20478;-73
2023/05/07 12:26:48;;;;;;;3.22;1.70;;;;;;;;;;4925447;28;20502;-74
2023/05/07 12:29:33;;;;;;;2.72;1.77;;;;;;;;;;4919800;29;20036;-78
2023/05/07 12:32:19;;;;;;;6.93;2.58;;;;;;;;;;4918710;29;20391;-73
2023/05/07 12:35:06;;;;;;;9.02;2.88;;;;;;;;;;4934196;28;20040;-72
2023/05/07 12:37:55;;;;;;;8.48;3.28;;;;;;;;;;4920922;28;20028;-73
2023/05/07 12:40:40;;;;;;;;;;;;;;;;;;4920586;29;20118;-73
2023/05/07 12:43:26;;;;;;;8.85;2.88;;;;;;;;;;4923423;28;20432;-70
2023/05/07 12:46:16;;;;;;;11.77;2.80;;;;;;;;;;4927957;29;20494;-70
2023/05/07 12:49:02;;;;;;;13.27;3.67;;;;;;;;;;4914341;29;20475;-70
2023/05/07 12:51:48;;;;;;;8.98;3.38;;;;;;;;;;4928782;28;20031;-71
2023/05/07 12:54:37;;;;;;;11.15;2.90;;;;;;;;;;4920591;29;20028;-71
2023/05/07 12:57:22;;;;;;;;;;;;;;;;;;4919248;29;20066;-72
2023/05/07 13:00:09;;;;;;;9.13;2.80;;;;;;;;;;4934472;29;19910;-71
2023/05/07 13:02:54;;;;;;;8.18;2.33;;;;;;;;;;4926499;28;20039;-70
2023/05/07 13:05:39;;;;;;;7.88;2.58;;;;;;;;;;4934314;28;20043;-78
2023/05/07 13:08:36;;;;;;;8.80;2.63;;;;;;;;;;4926660;29;20078;-73
2023/05/07 13:11:21;;;;;;;10.52;2.20;;;;;;;;;;4925746;29;20035;-73
2023/05/07 13:14:06;;;;;;;5.00;2.10;;;;;;;;;;4931625;28;20058;-73
2023/05/07 13:16:52;;;;;;;7.90;2.38;;;;;;;;;;4926678;29;20024;-74
2023/05/07 13:19:37;;;;;;;6.18;2.10;;;;;;;;;;4919776;29;20029;-75
2023/05/07 13:22:22;;;;;;;9.52;2.42;;;;;;;;;;4925031;29;20376;-78
2023/05/07 13:25:08;;;;;;;4.35;1.73;;;;;;;;;;4922235;29;20065;-74
2023/05/07 13:27:53;;;;;;;7.35;2.35;;;;;;;;;;4927477;29;20570;-71
2023/05/07 13:30:40;;;;;;;4.13;2.08;;;;;;;;;;4909623;29;20166;-71
2023/05/07 13:33:25;;;;;;;4.65;1.88;;;;;;;;;;4918412;28;20261;-70
2023/05/07 13:36:11;;;;;;;2.85;1.95;;;;;;;;;;4919124;28;20059;-69
2023/05/07 13:38:56;;;;;;;4.85;1.67;;;;;;;;;;4917650;29;20035;-70
2023/05/07 13:41:41;;;;;;;8.35;2.55;;;;;;;;;;4912039;29;20032;-69
2023/05/07 13:44:26;;;;;;;2.85;1.80;;;;;;;;;;4918067;29;20078;-71
2023/05/07 13:47:11;;;;;;;7.80;2.28;;;;;;;;;;4925466;29;20045;-71
2023/05/07 13:49:57;;;;;;;3.72;1.70;;;;;;;;;;4923660;29;20040;-69
2023/05/07 13:52:43;;;;;;;4.88;1.92;;;;;;;;;;4923730;28;20123;-68
2023/05/07 13:55:28;;;;;;;8.48;1.65;;;;;;;;;;4926872;29;20035;-70
2023/05/07 13:58:14;;;;;;;4.32;1.90;;;;;;;;;;4929697;29;20386;-68
2023/05/07 14:00:59;;;;;;;6.28;1.83;;;;;;;;;;4923134;29;20039;-75
2023/05/07 14:03:44;;;;;;;1.55;1.30;;;;;;;;;;4990643;28;20204;-68
2023/05/07 14:06:29;;;;;;;3.90;1.63;;;;;;;;;;4926395;29;20036;-68
2023/05/07 14:09:15;;;;;;;5.97;1.77;;;;;;;;;;4931467;28;20043;-70
2023/05/07 14:12:01;;;;;;;5.15;1.98;;;;;;;;;;4926969;29;20032;-70
2023/05/07 14:14:46;;;;;;;4.90;1.65;;;;;;;;;;4925878;29;20525;-69
2023/05/07 14:17:31;;;;;;;6.93;3.03;;;;;;;;;;4935965;28;20107;-68
2023/05/07 14:20:17;;;;;;;4.95;2.60;;;;;;;;;;4926350;29;20044;-69
2023/05/07 14:23:02;;;;;;;5.57;2.55;;;;;;;;;;4927129;29;20024;-69
2023/05/07 14:25:47;;;;;;;6.20;2.65;;;;;;;;;;4925292;28;20026;-69
2023/05/07 14:28:32;;;;;;;11.15;3.03;;;;;;;;;;4926092;29;20027;-71
2023/05/07 14:31:18;;;;;;;6.28;2.50;;;;;;;;;;4939204;28;20031;-69
2023/05/07 14:34:04;;;;;;;6.22;2.30;;;;;;;;;;4926938;29;20045;-68
2023/05/07 14:36:49;;;;;;;5.80;2.30;;;;;;;;;;4932928;29;20071;-77
2023/05/07 14:39:34;;;;;;;4.93;2.60;;;;;;;;;;4926803;29;20043;-75
2023/05/07 14:42:20;;;;;;;6.15;2.50;;;;;;;;;;4924863;29;20111;-76
2023/05/07 14:45:05;;;;;;;8.00;2.42;;;;;;;;;;4923177;29;20058;-75
2023/05/07 14:47:50;;;;;;;6.32;2.72;;;;;;;;;;4905228;28;20046;-75
2023/05/07 14:50:35;;;;;;;5.25;2.75;;;;;;;;;;4923321;29;20073;-74
2023/05/07 14:53:21;;;;;;;5.75;2.30;;;;;;;;;;4926484;28;20734;-76
2023/05/07 14:56:06;;;;;;;5.75;2.60;;;;;;;;;;4925963;29;20035;-73
2023/05/07 14:58:51;;;;;;;6.38;2.70;;;;;;;;;;4927408;29;20067;-69
2023/05/07 15:01:37;;;;;;;4.07;2.40;;;;;;;;;;4921603;29;20482;-67
2023/05/07 15:04:23;;;;;;;5.88;2.42;;;;;;;;;;4927642;29;20077;-71
2023/05/07 15:07:09;;;;;;;4.18;2.15;;;;;;;;;;4927068;29;20102;-69
2023/05/07 15:09:55;;;;;;;8.50;2.60;;;;;;;;;;4929073;29;20055;-67
2023/05/07 15:12:40;;;;;;;3.42;2.40;;;;;;;;;;4924995;29;20074;-71
2023/05/07 15:15:26;;;;;;;6.35;3.05;;;;;;;;;;4926352;28;20241;-69
2023/05/07 15:18:11;;;;;;;6.32;2.40;;;;;;;;;;4926610;29;20042;-65
2023/05/07 15:20:57;;;;;;;5.50;2.70;;;;;;;;;;4925032;29;20082;-65
2023/05/07 15:23:44;;;;;;;5.30;2.50;;;;;;;;;;4926756;29;20196;-68
2023/05/07 15:26:30;;;;;;;6.28;2.88;;;;;;;;;;4924096;29;20035;-66
2023/05/07 15:29:15;;;;;;;4.45;2.75;;;;;;;;;;4912377;29;20028;-65
2023/05/07 15:32:00;;;;;;;6.25;3.00;;;;;;;;;;4922146;29;20408;-68
2023/05/07 15:34:45;;;;;;;4.80;1.90;;;;;;;;;;4923227;28;20096;-75
2023/05/07 15:37:31;;;;;;;4.20;2.20;;;;;;;;;;4926490;29;20468;-76
2023/05/07 15:40:16;;;;;;;6.30;2.63;;;;;;;;;;4930356;29;20123;-74
2023/05/07 15:43:02;;;;;;;6.28;2.45;;;;;;;;;;4917153;29;20714;-75
2023/05/07 15:45:47;;;;;;;5.90;2.72;;;;;;;;;;4920609;28;20039;-76
2023/05/07 15:48:32;;;;;;;5.22;3.05;;;;;;;;;;4921447;29;20558;-78
2023/05/07 15:51:19;;;;;;;5.93;2.45;;;;;;;;;;4923245;28;20536;-77
2023/05/07 15:54:05;;;;;;;5.25;2.13;;;;;;;;;;4927003;29;20090;-64
2023/05/07 15:56:50;;;;;;;9.48;3.53;;;;;;;;;;4919747;29;20050;-66
2023/05/07 15:59:35;;;;;;;3.85;2.42;;;;;;;;;;4918928;29;20146;-66
2023/05/07 16:02:21;;;;;;;5.50;2.58;;;;;;;;;;4918629;29;20040;-68
2023/05/07 16:05:09;;;;;;;3.15;2.30;;;;;;;;;;4920890;29;20039;-68
2023/05/07 16:07:56;;;;;;;9.77;4.97;;;;;;;;;;4925861;29;20604;-70
2023/05/07 16:10:41;;;;;;;10.57;5.40;;;;;;;;;;4921398;29;20020;-69
2023/05/07 16:13:26;;;;;;;8.90;4.50;;;;;;;;;;4929111;29;20039;-68
2023/05/07 16:16:12;;;;;;;4.65;2.72;;;;;;;;;;4919410;29;20495;-69
2023/05/07 16:18:57;;;;;;;4.75;2.63;;;;;;;;;;4922586;29;20039;-69
2023/05/07 16:21:42;;;;;;;3.92;2.25;;;;;;;;;;4920056;29;20047;-68
2023/05/07 16:24:27;;;;;;;4.93;2.72;;;;;;;;;;4918261;29;20097;-71
2023/05/07 16:27:12;;;;;;;5.13;2.97;;;;;;;;;;4918356;29;20043;-69
2023/05/07 16:29:58;;;;;;;5.03;2.70;;;;;;;;;;4920173;29;20166;-75
2023/05/07 16:32:43;;;;;;;4.82;2.40;;;;;;;;;;4919650;29;20074;-74
2023/05/07 16:35:28;;;;;;;4.80;2.65;;;;;;;;;;4922752;29;20046;-76